Acton, Texas
Current Conditions -  °F | °C
As of 3:15 PM on Friday 31 Oct 2014 (Local Time) from KGDJ Reporting Station
Clear Clear  
Wind Chill: 67°   Ceiling: Unl
Heat Index: 67°   Visibility: 10mi
Dew Point: 42°   Wind: 12mph
Humidity: 39%   Direction: 330°NNW
Pressure: 30.31"   Gusts: 17mph
Location:  32.4693°N, 97.7085°W
Report Text: KGDJ 312015Z AUTO 33010G15KT 300V360 10SM CLR 20/05 A3031 RMK AO2 T01950053
Loading
Personal Weather Stations






























Interactive Weather Map
Tropical Storm Tracking
New forecast layout! Learn more

10-Day Weather Forecast

Advertisements
Track Severe Weather on mobile